Currently 51°F in Fallbrook, California, USA
51°F
51°F / 47°F
calm
0.04"
Saturday, January 21, 2017 9:24 AM PST

Fallbrook, California Weather Summary
Last 36 Hours

Temperature Winds Hourly Humidity Dewpoint
Time Report Norm Report Norm Max Gusts Precip. Rpt. Norm Rpt. Norm Pressure
1Sat 09:24 AM  51.1°F  59°F  calm  1 mph  3 mph  0.00"  96%  58%  50°F  44°F  29.92"
2Sat 09:02 AM  51.3°F  58°F  4 mph SE  1 mph  8 mph  ----  96%  60%  50°F  43°F  29.89"
Sat 09:00 AM  51.3°F  58°F  calm  1 mph  11 mph  0.00"  96%  60%  50°F  43°F  29.89"
Sat 08:00 AM  48.4°F  54°F  4 mph W  1 mph  15 mph  0.00"  98%  63%  48°F  41°F  29.84"
Sat 07:00 AM  47.2°F  52°F  7 mph W  1 mph  14 mph  0.00"  99%  63%  47°F  39°F  29.81"
Sat 06:00 AM  47.4°F  52°F  7 mph W  2 mph  14 mph  0.00"  100%  63%  47°F  40°F  29.77"
3Sat 05:24 AM  47.0°F  52°F  7 mph SW  1 mph  12 mph  ----  100%  64%  47°F  40°F  29.74"
Sat 05:00 AM  47.4°F  52°F  1 mph W  1 mph  15 mph  0.02"  100%  64%  47°F  40°F  29.74"
Sat 04:00 AM  47.5°F  53°F  9 mph NW  1 mph  16 mph  0.02"  99%  64%  47°F  40°F  29.71"
Sat 03:00 AM  47.9°F  53°F  5 mph W  1 mph  12 mph  0.00"  99%  65%  48°F  41°F  29.68"
Sat 02:00 AM  48.2°F  53°F  7 mph NW  1 mph  13 mph  0.00"  100%  65%  48°F  41°F  29.67"
Sat 01:00 AM  47.5°F  53°F  5 mph W  1 mph  9 mph  0.00"  100%  66%  47°F  42°F  29.64"
Sat 12:00 AM  47.3°F  54°F  calm  1 mph  12 mph  0.00"  100%  67%  47°F  43°F  29.62"
Fri 11:00 PM  48.9°F  54°F  3 mph W  1 mph  19 mph  0.07"  100%  67%  49°F  43°F  29.62"
Fri 10:00 PM  49.8°F  55°F  calm  1 mph  14 mph  0.01"  100%  68%  50°F  44°F  29.59"
Fri 09:00 PM  49.4°F  55°F  calm  1 mph  10 mph  0.00"  100%  68%  49°F  45°F  29.58"
Fri 08:00 PM  49.3°F  56°F  1 mph SW  1 mph  10 mph  0.00"  100%  68%  49°F  45°F  29.57"
Fri 07:00 PM  50.0°F  57°F  calm  1 mph  10 mph  0.01"  100%  68%  50°F  46°F  29.55"
Fri 06:00 PM  50.9°F  58°F  1 mph SW  1 mph  21 mph  0.11"  100%  65%  51°F  46°F  29.53"
Fri 05:00 PM  53.1°F  61°F  5 mph SW  1 mph  13 mph  0.05"  100%  61%  53°F  47°F  29.51"
Fri 04:00 PM  52.0°F  65°F  calm  2 mph  23 mph  0.05"  100%  52%  52°F  47°F  29.49"
Fri 03:00 PM  55.4°F  67°F  7 mph S  2 mph  27 mph  0.70"  100%  49%  55°F  46°F  29.48"
Fri 02:00 PM  52.9°F  68°F  6 mph S  3 mph  20 mph  0.42"  100%  46%  53°F  46°F  29.50"
Fri 01:00 PM  51.6°F  68°F  8 mph S  3 mph  16 mph  0.33"  100%  43%  52°F  44°F  29.53"
Fri 12:00 PM  51.7°F  67°F  2 mph S  2 mph  17 mph  0.18"  100%  45%  52°F  44°F  29.61"
Fri 11:00 AM  51.8°F  65°F  2 mph SW  2 mph  19 mph  0.06"  100%  49%  52°F  45°F  29.69"
Fri 10:00 AM  51.2°F  62°F  1 mph S  2 mph  11 mph  0.12"  100%  54%  51°F  44°F  29.76"
Fri 09:00 AM  51.0°F  58°F  4 mph S  1 mph  11 mph  0.09"  100%  58%  51°F  42°F  29.77"
Fri 08:00 AM  51.1°F  53°F  5 mph S  1 mph  11 mph  0.14"  100%  60%  51°F  40°F  29.79"
Fri 07:00 AM  50.4°F  52°F  calm  2 mph  9 mph  0.08"  100%  61%  50°F  38°F  29.80"
Fri 06:00 AM  50.4°F  52°F  calm  2 mph  none  0.09"  100%  61%  50°F  39°F  29.82"
Fri 05:00 AM  51.0°F  52°F  calm  1 mph  none  0.06"  100%  61%  51°F  39°F  29.80"
Fri 04:00 AM  51.0°F  53°F  calm  1 mph  6 mph  0.04"  100%  61%  51°F  39°F  29.81"
Fri 03:00 AM  50.8°F  53°F  calm  2 mph  5 mph  0.00"  100%  62%  51°F  40°F  29.85"
Fri 02:00 AM  51.4°F  53°F  calm  1 mph  none  0.02"  100%  63%  51°F  40°F  29.88"
Fri 01:00 AM  51.1°F  53°F  calm  1 mph  6 mph  0.01"  100%  64%  51°F  41°F  29.87"
Fri 12:00 AM  51.6°F  54°F  calm  1 mph  5 mph  0.02"  100%  64%  52°F  41°F  29.89"
Thu 11:00 PM  51.8°F  54°F  calm  1 mph  none  0.00"  100%  64%  52°F  42°F  29.92"
Thu 10:00 PM  52.0°F  55°F  calm  1 mph  7 mph  0.00"  100%  65%  52°F  43°F  29.92"

  1. Current weather data. No green row appears if the current weather data is also the high or low for the current day.
  2. High temperature for the current day.
  3. Low temperature for the current day.

The Fallbrook weather pages are a service of WeatherCurrents. Fallbrook, California is located in northern San Diego County, close to I15 and Camp Pendleton, and is home to ranches, avocado and citrus groves, and plant nurseries.
Copyright ©Sat Jan 21 09:25:51 PST 2017  WeatherCurrents. All rights reserved. - Submit questions and comments - Privacy Policy

This page automatically refreshes every 10 minutes.